Time;durP1;ratioP1;P1;durP2;ratioP2;P2;SDS_P1;SDS_P2;PMS_P1;PMS_P2;Temp;Humidity;BMP_temperature;BMP_pressure;BME280_temperature;BME280_humidity;BME280_pressure;Samples;Min_cycle;Max_cycle;Signal;HPM_P1;HPM_P2
2023/06/17 00:01:15;;;;;;;;;;;11.50;99.90;;;;;;5093332;28;20359;-61
2023/06/17 00:03:42;;;;;;;;;;;11.60;99.90;;;;;;5093148;28;20237;-62
2023/06/17 00:06:09;;;;;;;;;;;11.70;99.90;;;;;;5093300;28;19915;-62
2023/06/17 00:08:36;;;;;;;;;;;11.70;99.90;;;;;;5091950;28;19915;-64
2023/06/17 00:11:03;;;;;;;;;;;11.80;99.90;;;;;;5072460;28;19913;-62
2023/06/17 00:13:30;;;;;;;;;;;11.90;99.90;;;;;;5073074;28;19995;-62
2023/06/17 00:15:59;;;;;;;;;;;12.00;99.90;;;;;;5073883;28;19923;-62
2023/06/17 00:18:26;;;;;;;;;;;12.10;99.90;;;;;;5077206;28;19981;-61
2023/06/17 00:20:53;;;;;;;;;;;12.30;99.90;;;;;;5092640;28;19908;-64
2023/06/17 00:23:23;;;;;;;;;;;12.40;99.90;;;;;;5088689;28;20602;-63
2023/06/17 00:25:50;;;;;;;;;;;12.50;99.90;;;;;;5076405;28;19908;-62
2023/06/17 00:28:17;;;;;;;;;;;12.60;99.90;;;;;;5092039;28;19908;-62
2023/06/17 00:30:46;;;;;;;;;;;12.70;99.90;;;;;;5105166;28;19908;-62
2023/06/17 00:33:13;;;;;;;;;;;12.80;99.90;;;;;;5096705;28;19958;-61
2023/06/17 00:35:40;;;;;;;;;;;12.90;99.90;;;;;;5092771;28;19915;-60
2023/06/17 00:38:07;;;;;;;;;;;13.00;99.90;;;;;;5090639;28;19931;-61
2023/06/17 00:40:33;;;;;;;;;;;13.10;99.90;;;;;;5090642;28;19956;-61
2023/06/17 00:43:00;;;;;;;;;;;13.30;99.90;;;;;;5091869;28;19926;-62
2023/06/17 00:45:38;;;;;;;;;;;13.30;99.90;;;;;;5089354;28;20151;-62
2023/06/17 00:48:08;;;;;;;;;;;13.30;99.90;;;;;;5089279;28;19919;-62
2023/06/17 00:50:36;;;;;;;;;;;13.50;99.90;;;;;;5089433;28;19908;-63
2023/06/17 00:53:03;;;;;;;;;;;13.50;99.90;;;;;;5090296;28;19915;-63
2023/06/17 00:55:32;;;;;;;;;;;13.50;99.90;;;;;;5091854;28;20272;-61
2023/06/17 00:58:00;;;;;;;;;;;13.60;99.90;;;;;;5090465;28;20364;-63
2023/06/17 01:00:27;;;;;;;;;;;13.80;99.90;;;;;;5091325;28;19908;-63
2023/06/17 01:02:56;;;;;;;;;;;13.80;99.90;;;;;;5091220;28;19912;-62
2023/06/17 01:05:23;;;;;;;;;;;13.90;99.90;;;;;;5074869;28;19913;-61
2023/06/17 01:07:52;;;;;;;;;;;14.00;99.90;;;;;;5067717;28;19957;-63
2023/06/17 01:10:19;;;;;;;;;;;14.20;99.90;;;;;;5086809;28;20334;-64
2023/06/17 01:12:47;;;;;;;;;;;14.40;99.90;;;;;;5087768;28;19915;-63
2023/06/17 01:15:16;;;;;;;;;;;14.50;99.90;;;;;;5073911;28;19954;-64
2023/06/17 01:17:47;;;;;;;;;;;14.60;99.90;;;;;;5089147;28;19912;-62
2023/06/17 01:20:15;;;;;;;;;;;14.70;99.90;;;;;;5090703;28;20003;-63
2023/06/17 01:22:42;;;;;;;;;;;14.80;99.90;;;;;;5082995;28;20305;-64
2023/06/17 01:25:09;;;;;;;;;;;14.90;99.90;;;;;;5071537;28;20004;-62
2023/06/17 01:27:36;;;;;;;;;;;15.10;99.90;;;;;;5070645;28;20003;-63
2023/06/17 01:30:03;;;;;;;;;;;15.20;99.90;;;;;;5072307;28;19919;-63
2023/06/17 01:32:29;;;;;;;;;;;15.30;99.90;;;;;;5072541;28;19935;-63
2023/06/17 01:35:16;;;;;;;;;;;15.40;99.90;;;;;;5072278;28;19908;-62
2023/06/17 01:37:48;;;;;;;;;;;15.50;99.90;;;;;;5075191;28;19915;-62
2023/06/17 01:40:17;;;;;;;;;;;15.70;99.90;;;;;;5075991;28;19909;-62
2023/06/17 01:42:45;;;;;;;;;;;15.90;99.80;;;;;;5081019;28;19920;-62
2023/06/17 01:45:12;;;;;;;;;;;16.00;99.30;;;;;;5074968;28;19916;-63
2023/06/17 01:47:39;;;;;;;;;;;16.10;99.10;;;;;;5075723;28;19948;-64
2023/06/17 01:50:06;;;;;;;;;;;16.30;98.50;;;;;;5075763;28;19909;-63
2023/06/17 01:52:33;;;;;;;;;;;16.30;98.50;;;;;;5075864;28;19931;-62
2023/06/17 01:55:00;;;;;;;;;;;16.50;98.40;;;;;;5075816;28;19919;-62
2023/06/17 01:57:27;;;;;;;;;;;16.60;98.40;;;;;;5075716;28;19946;-62
2023/06/17 01:59:54;;;;;;;;;;;16.70;97.90;;;;;;5075633;28;19909;-62
2023/06/17 02:02:21;;;;;;;;;;;16.80;97.20;;;;;;5075385;28;20254;-64
2023/06/17 02:04:48;;;;;;;;;;;16.90;96.90;;;;;;5095059;28;19916;-62
2023/06/17 02:07:18;;;;;;;;;;;16.90;96.60;;;;;;5095446;28;19912;-62
2023/06/17 02:09:45;;;;;;;;;;;16.80;95.30;;;;;;5086678;28;19965;-62
2023/06/17 02:12:12;;;;;;;;;;;16.70;95.30;;;;;;5075595;28;20011;-62
2023/06/17 02:14:39;;;;;;;;;;;16.80;95.30;;;;;;5075547;28;19908;-62
2023/06/17 02:17:08;;;;;;;;;;;16.80;94.90;;;;;;5075238;28;19919;-64
2023/06/17 02:19:35;;;;;;;;;;;16.80;93.70;;;;;;5075289;28;19974;-62
2023/06/17 02:22:02;;;;;;;;;;;16.90;93.60;;;;;;5075329;28;19970;-62
2023/06/17 02:24:28;;;;;;;;;;;16.90;93.40;;;;;;5075009;28;19998;-62
2023/06/17 02:26:56;;;;;;;;;;;17.00;93.20;;;;;;5075712;28;19919;-63
2023/06/17 02:29:22;;;;;;;;;;;17.00;92.20;;;;;;5074942;28;19916;-63
2023/06/17 02:31:49;;;;;;;;;;;17.20;91.80;;;;;;5074980;28;20361;-64
2023/06/17 02:34:16;;;;;;;;;;;17.50;92.10;;;;;;5074963;28;20444;-63
2023/06/17 02:36:42;;;;;;;;;;;17.60;91.10;;;;;;5075019;28;20338;-63
2023/06/17 02:39:10;;;;;;;;;;;17.70;91.60;;;;;;5094782;28;19908;-63
2023/06/17 02:41:37;;;;;;;;;;;17.70;91.40;;;;;;5093155;28;19912;-64
2023/06/17 02:44:03;;;;;;;;;;;17.60;91.90;;;;;;5094331;28;20237;-65
2023/06/17 02:46:30;;;;;;;;;;;17.70;91.80;;;;;;5094661;28;19908;-63
2023/06/17 02:48:57;;;;;;;;;;;17.80;92.10;;;;;;5081691;28;19913;-63
2023/06/17 02:51:23;;;;;;;;;;;17.80;92.20;;;;;;5074744;28;19919;-65
2023/06/17 02:53:50;;;;;;;;;;;17.90;91.30;;;;;;5074593;28;20380;-62
2023/06/17 02:56:17;;;;;;;;;;;18.00;91.50;;;;;;5074693;28;20323;-63
2023/06/17 02:58:45;;;;;;;;;;;18.30;91.30;;;;;;5074611;28;20003;-62
2023/06/17 03:01:12;;;;;;;;;;;18.60;91.00;;;;;;5074548;28;19951;-62
2023/06/17 03:03:41;;;;;;;;;;;19.20;90.40;;;;;;5074470;28;19958;-63
2023/06/17 03:06:09;;;;;;;;;;;20.00;89.70;;;;;;5086867;28;20054;-62
2023/06/17 03:08:36;;;;;;;;;;;20.70;85.50;;;;;;5094490;28;19957;-62
2023/06/17 03:11:03;;;;;;;;;;;21.00;84.90;;;;;;5094634;28;19912;-62
2023/06/17 03:13:30;;;;;;;;;;;20.90;84.60;;;;;;5094384;28;19918;-63
2023/06/17 03:15:58;;;;;;;;;;;20.70;84.90;;;;;;5075487;28;20024;-63
2023/06/17 03:18:25;;;;;;;;;;;20.40;84.80;;;;;;5074109;28;19966;-63
2023/06/17 03:20:55;;;;;;;;;;;20.70;85.30;;;;;;5074156;28;20377;-62
2023/06/17 03:23:22;;;;;;;;;;;21.00;84.50;;;;;;5073944;28;19920;-62
2023/06/17 03:25:49;;;;;;;;;;;21.60;82.40;;;;;;5086098;28;20006;-63
2023/06/17 03:28:17;;;;;;;;;;;22.60;80.20;;;;;;5076713;28;19913;-62
2023/06/17 03:30:44;;;;;;;;;;;23.40;77.60;;;;;;5073654;28;20015;-62
2023/06/17 03:33:11;;;;;;;;;;;24.00;76.20;;;;;;5079575;28;20031;-64
2023/06/17 03:35:38;;;;;;;;;;;24.90;76.10;;;;;;5093686;28;20261;-62
2023/06/17 03:38:05;;;;;;;;;;;26.70;72.90;;;;;;5093813;28;19991;-64
2023/06/17 03:40:32;;;;;;;;;;;27.80;68.30;;;;;;5084970;28;19962;-64
2023/06/17 03:42:58;;;;;;;;;;;28.50;65.50;;;;;;5079115;28;20023;-63
2023/06/17 03:45:25;;;;;;;;;;;28.70;63.30;;;;;;5093828;28;19909;-62
2023/06/17 03:47:52;;;;;;;;;;;29.30;63.20;;;;;;5093634;28;19912;-63
2023/06/17 03:50:18;;;;;;;;;;;30.00;60.30;;;;;;5093749;28;19908;-63
2023/06/17 03:52:45;;;;;;;;;;;29.80;60.70;;;;;;5075230;28;19913;-62
2023/06/17 03:55:12;;;;;;;;;;;30.60;59.60;;;;;;5073594;28;20257;-63
2023/06/17 03:57:38;;;;;;;;;;;31.10;58.60;;;;;;5073318;28;20269;-63
2023/06/17 04:00:06;;;;;;;;;;;31.30;57.70;;;;;;5072276;28;20371;-63
2023/06/17 04:02:32;;;;;;;;;;;31.60;56.90;;;;;;5090623;28;19943;-64
2023/06/17 04:05:00;;;;;;;;;;;31.60;56.40;;;;;;5093373;28;19916;-61
2023/06/17 04:07:27;;;;;;;;;;;31.40;56.40;;;;;;5093230;28;20314;-64
2023/06/17 04:09:54;;;;;;;;;;;30.40;56.60;;;;;;5093200;28;19909;-63
2023/06/17 04:12:20;;;;;;;;;;;29.10;57.80;;;;;;5093197;28;19908;-62
2023/06/17 04:14:47;;;;;;;;;;;27.80;59.00;;;;;;5093372;28;19908;-64
2023/06/17 04:17:17;;;;;;;;;;;26.10;60.70;;;;;;5093498;28;19908;-62
2023/06/17 04:19:44;;;;;;;;;;;25.00;62.60;;;;;;5093289;28;19915;-62
2023/06/17 04:22:11;;;;;;;;;;;23.80;64.60;;;;;;5075654;28;19912;-61
2023/06/17 04:24:38;;;;;;;;;;;22.90;66.60;;;;;;5072408;28;19920;-62
2023/06/17 04:27:06;;;;;;;;;;;22.10;69.20;;;;;;5072762;28;20515;-62
2023/06/17 04:29:34;;;;;;;;;;;21.70;71.70;;;;;;5073905;28;20004;-62
2023/06/17 04:32:02;;;;;;;;;;;21.20;72.50;;;;;;5072636;28;19916;-62
2023/06/17 04:34:28;;;;;;;;;;;20.90;74.40;;;;;;5072801;28;19915;-64
2023/06/17 04:36:58;;;;;;;;;;;20.60;74.90;;;;;;5072573;28;20065;-63
2023/06/17 04:39:26;;;;;;;;;;;20.30;76.50;;;;;;5072815;28;19999;-64
2023/06/17 04:41:53;;;;;;;;;;;20.00;77.40;;;;;;5088985;28;19962;-62
2023/06/17 04:44:20;;;;;;;;;;;19.90;78.80;;;;;;5092644;28;20284;-63
2023/06/17 04:46:48;;;;;;;;;;;19.70;80.50;;;;;;5092345;28;19952;-62
2023/06/17 04:49:15;;;;;;;;;;;19.70;80.30;;;;;;5092680;28;19916;-63
2023/06/17 04:51:42;;;;;;;;;;;19.60;80.20;;;;;;5092792;28;19919;-65
2023/06/17 04:54:08;;;;;;;;;;;19.70;79.70;;;;;;5092839;28;19908;-64
2023/06/17 04:56:36;;;;;;;;;;;19.80;80.20;;;;;;5089854;28;19912;-63
2023/06/17 04:59:03;;;;;;;;;;;19.70;78.80;;;;;;5080258;28;19912;-64
2023/06/17 05:01:29;;;;;;;;;;;19.80;78.90;;;;;;5091231;28;19912;-62
2023/06/17 05:03:56;;;;;;;;;;;19.90;79.10;;;;;;5092905;28;19924;-64
2023/06/17 05:06:23;;;;;;;;;;;19.90;79.20;;;;;;5070811;28;20532;-63
2023/06/17 05:08:50;;;;;;;;;;;20.00;81.20;;;;;;5090753;28;19915;-64
2023/06/17 05:11:17;;;;;;;;;;;20.10;81.70;;;;;;5093621;28;19990;-63
2023/06/17 05:13:43;;;;;;;;;;;20.20;80.70;;;;;;5096237;28;20253;-64
2023/06/17 05:16:10;;;;;;;;;;;20.40;79.20;;;;;;5089494;28;20384;-61
2023/06/17 05:18:36;;;;;;;;;;;20.30;79.20;;;;;;5084050;28;19916;-62
2023/06/17 05:21:04;;;;;;;;;;;20.30;81.00;;;;;;5104469;28;20482;-61
2023/06/17 05:23:30;;;;;;;;;;;20.20;79.50;;;;;;5077575;28;19927;-62
2023/06/17 05:25:57;;;;;;;;;;;20.20;81.30;;;;;;5094747;28;20368;-62
2023/06/17 05:28:23;;;;;;;;;;;20.20;81.60;;;;;;5085080;28;19999;-63
2023/06/17 05:30:50;;;;;;;;;;;20.30;82.30;;;;;;5098620;28;19962;-62
2023/06/17 05:33:17;;;;;;;;;;;20.40;81.80;;;;;;5116066;28;19953;-62
2023/06/17 05:35:43;;;;;;;;;;;20.40;81.60;;;;;;5090824;28;19982;-63
2023/06/17 05:38:10;;;;;;;;;;;20.50;81.50;;;;;;5100721;28;19912;-63
2023/06/17 05:40:37;;;;;;;;;;;20.70;82.10;;;;;;5094620;28;19923;-63
2023/06/17 05:43:03;;;;;;;;;;;20.90;82.60;;;;;;5097621;28;19924;-63
2023/06/17 05:45:30;;;;;;;;;;;21.10;80.50;;;;;;5076115;28;20439;-62
2023/06/17 05:47:56;;;;;;;;;;;21.20;79.40;;;;;;5082162;28;20061;-62
2023/06/17 05:50:23;;;;;;;;;;;21.40;80.80;;;;;;5089469;28;19912;-61
2023/06/17 05:52:51;;;;;;;;;;;21.40;80.70;;;;;;5058911;28;19915;-63
2023/06/17 05:55:18;;;;;;;;;;;21.40;81.90;;;;;;5056467;28;19916;-61
2023/06/17 05:57:44;;;;;;;;;;;21.40;81.40;;;;;;5083100;28;19912;-62
2023/06/17 06:00:12;;;;;;;;;;;21.50;81.60;;;;;;5091509;28;19923;-62
2023/06/17 06:02:38;;;;;;;;;;;21.70;80.80;;;;;;5096883;28;19927;-63
2023/06/17 06:05:06;;;;;;;;;;;22.30;80.40;;;;;;5085065;28;19999;-62
2023/06/17 06:07:32;;;;;;;;;;;22.80;79.50;;;;;;5079219;28;19923;-61
2023/06/17 06:09:59;;;;;;;;;;;23.30;78.70;;;;;;5094753;28;20254;-62
2023/06/17 06:12:26;;;;;;;;;;;23.70;78.20;;;;;;5094518;28;19980;-62
2023/06/17 06:14:54;;;;;;;;;;;23.60;77.70;;;;;;5088024;28;19912;-62
2023/06/17 06:17:20;;;;;;;;;;;23.00;79.60;;;;;;5083243;28;20010;-63
2023/06/17 06:19:47;;;;;;;;;;;22.20;82.00;;;;;;5089383;28;19927;-63
2023/06/17 06:22:13;;;;;;;;;;;21.50;84.60;;;;;;5092779;28;19912;-63
2023/06/17 06:24:40;;;;;;;;;;;20.80;87.00;;;;;;5081247;28;19971;-62
2023/06/17 06:27:07;;;;;;;;;;;20.20;88.90;;;;;;5075575;28;19955;-62
2023/06/17 06:29:33;;;;;;;;;;;19.70;90.40;;;;;;5072794;28;19912;-62
2023/06/17 06:32:00;;;;;;;;;;;19.30;91.20;;;;;;5082572;28;19958;-61
2023/06/17 06:34:27;;;;;;;;;;;18.80;92.20;;;;;;5085328;28;19912;-61
2023/06/17 06:36:56;;;;;;;;;;;18.50;92.90;;;;;;5075835;28;19912;-61
2023/06/17 06:39:23;;;;;;;;;;;18.20;93.70;;;;;;5073779;28;19908;-61
2023/06/17 06:41:49;;;;;;;;;;;18.00;94.60;;;;;;5081383;28;19920;-60
2023/06/17 06:44:16;;;;;;;;;;;17.60;95.40;;;;;;5086063;28;19916;-64
2023/06/17 06:46:43;;;;;;;;;;;17.30;96.00;;;;;;5076663;28;19982;-62
2023/06/17 06:49:10;;;;;;;;;;;17.10;96.70;;;;;;5073652;28;19930;-63
2023/06/17 06:51:36;;;;;;;;;;;17.00;97.20;;;;;;5084410;28;19912;-62
2023/06/17 06:54:03;;;;;;;;;;;16.80;97.80;;;;;;5099981;28;19953;-61
2023/06/17 06:56:30;;;;;;;;;;;16.70;98.30;;;;;;5084187;28;20015;-62
2023/06/17 06:58:57;;;;;;;;;;;16.60;98.80;;;;;;5073190;28;19951;-62
2023/06/17 07:01:26;;;;;;;;;;;16.50;99.30;;;;;;5088579;28;20458;-63
2023/06/17 07:03:53;;;;;;;;;;;16.30;99.70;;;;;;5083952;28;19928;-63
2023/06/17 07:06:20;;;;;;;;;;;16.20;99.90;;;;;;5074018;28;20000;-62
2023/06/17 07:08:46;;;;;;;;;;;16.20;99.90;;;;;;5073440;28;20042;-63
2023/06/17 07:11:13;;;;;;;;;;;16.00;99.90;;;;;;5074758;28;20007;-64
2023/06/17 07:13:39;;;;;;;;;;;15.90;99.90;;;;;;5091491;28;20361;-63
2023/06/17 07:16:06;;;;;;;;;;;15.80;99.90;;;;;;5086192;28;19991;-62
2023/06/17 07:18:32;;;;;;;;;;;15.70;99.90;;;;;;5072839;28;20284;-63
2023/06/17 07:20:59;;;;;;;;;;;15.60;99.90;;;;;;5080107;28;19915;-62
2023/06/17 07:23:26;;;;;;;;;;;15.60;99.90;;;;;;5093187;28;19920;-63
2023/06/17 07:25:52;;;;;;;;;;;15.50;99.90;;;;;;5091579;28;20006;-63
2023/06/17 07:28:20;;;;;;;;;;;15.40;99.90;;;;;;5077301;28;19912;-62
2023/06/17 07:30:47;;;;;;;;;;;15.40;99.90;;;;;;5073078;28;19962;-63
2023/06/17 07:33:13;;;;;;;;;;;15.20;99.90;;;;;;5089061;28;19959;-62
2023/06/17 07:35:40;;;;;;;;;;;15.20;99.90;;;;;;5090763;28;19920;-63
2023/06/17 07:38:07;;;;;;;;;;;15.10;99.90;;;;;;5088403;28;19916;-63
2023/06/17 07:40:35;;;;;;;;;;;15.10;99.90;;;;;;5091596;28;19961;-62
2023/06/17 07:43:02;;;;;;;;;;;15.00;99.90;;;;;;5092857;28;19924;-63
2023/06/17 07:45:29;;;;;;;;;;;15.00;99.90;;;;;;5091320;28;19912;-63
2023/06/17 07:47:56;;;;;;;;;;;14.90;99.90;;;;;;5086712;28;19935;-62
2023/06/17 07:50:22;;;;;;;;;;;14.90;99.90;;;;;;5079993;28;19916;-63
2023/06/17 07:52:50;;;;;;;;;;;14.80;99.90;;;;;;5095534;28;19951;-63
2023/06/17 07:55:16;;;;;;;;;;;14.70;99.90;;;;;;5092384;28;19908;-63
2023/06/17 07:57:43;;;;;;;;;;;14.70;99.90;;;;;;5087797;28;20387;-63
2023/06/17 08:00:12;;;;;;;;;;;14.70;99.90;;;;;;5072117;28;19912;-63
2023/06/17 08:02:42;;;;;;;;;;;14.50;99.90;;;;;;5090758;28;20023;-63
2023/06/17 08:05:09;;;;;;;;;;;14.50;99.90;;;;;;5092184;28;19961;-63
2023/06/17 08:07:36;;;;;;;;;;;14.40;99.90;;;;;;5087567;28;20010;-63
2023/06/17 08:10:03;;;;;;;;;;;14.40;99.90;;;;;;5071807;28;20245;-63
2023/06/17 08:12:30;;;;;;;;;;;14.30;99.90;;;;;;5079393;28;19973;-63
2023/06/17 08:14:56;;;;;;;;;;;14.30;99.90;;;;;;5092261;28;20418;-63
2023/06/17 08:17:23;;;;;;;;;;;14.20;99.90;;;;;;5088863;28;19913;-64
2023/06/17 08:19:50;;;;;;;;;;;14.10;99.90;;;;;;5084918;28;19912;-63
2023/06/17 08:22:17;;;;;;;;;;;14.10;99.90;;;;;;5092080;28;19912;-64
2023/06/17 08:24:43;;;;;;;;;;;14.10;99.90;;;;;;5091838;28;20053;-62
2023/06/17 08:27:10;;;;;;;;;;;13.90;99.90;;;;;;5088606;28;19916;-63
2023/06/17 08:29:37;;;;;;;;;;;14.00;99.90;;;;;;5090907;28;19913;-63
2023/06/17 08:32:04;;;;;;;;;;;13.90;99.90;;;;;;5092015;28;20365;-63
2023/06/17 08:34:31;;;;;;;;;;;13.80;99.90;;;;;;5092322;28;19999;-63
2023/06/17 08:37:04;;;;;;;;;;;13.70;99.90;;;;;;5086913;28;19914;-61
2023/06/17 08:39:31;;;;;;;;;;;13.70;99.90;;;;;;5075026;28;19908;-63
2023/06/17 08:41:58;;;;;;;;;;;13.70;99.90;;;;;;5073814;28;19921;-63
2023/06/17 08:44:31;;;;;;;;;;;13.60;99.90;;;;;;5091874;28;20379;-61
2023/06/17 08:47:01;;;;;;;;;;;13.60;99.90;;;;;;5086183;28;19915;-62
2023/06/17 08:49:28;;;;;;;;;;;13.50;99.90;;;;;;5088326;28;19920;-62
2023/06/17 08:51:55;;;;;;;;;;;13.50;99.90;;;;;;5098166;28;20268;-61
2023/06/17 08:54:23;;;;;;;;;;;13.40;99.90;;;;;;5092005;28;20289;-62
2023/06/17 08:56:50;;;;;;;;;;;13.30;99.90;;;;;;5086278;28;20306;-62
2023/06/17 08:59:16;;;;;;;;;;;13.30;99.90;;;;;;5071166;28;19931;-62
2023/06/17 09:01:43;;;;;;;;;;;13.20;99.90;;;;;;5081404;28;19944;-62
2023/06/17 09:04:11;;;;;;;;;;;13.30;99.90;;;;;;5091288;28;19924;-62
2023/06/17 09:06:38;;;;;;;;;;;13.20;99.90;;;;;;5091567;28;19908;-61
2023/06/17 09:09:05;;;;;;;;;;;13.10;99.90;;;;;;5077539;28;19908;-62
2023/06/17 09:11:32;;;;;;;;;;;13.10;99.90;;;;;;5082921;28;19920;-62
2023/06/17 09:13:59;;;;;;;;;;;13.10;99.90;;;;;;5078502;28;20266;-61
2023/06/17 09:16:27;;;;;;;;;;;13.00;99.90;;;;;;5091084;28;19999;-62
2023/06/17 09:18:57;;;;;;;;;;;13.00;99.90;;;;;;5088817;28;19909;-61
2023/06/17 09:21:25;;;;;;;;;;;13.00;99.90;;;;;;5099813;28;19918;-62
2023/06/17 09:23:52;;;;;;;;;;;13.00;99.90;;;;;;5093780;28;20102;-60
2023/06/17 09:26:20;;;;;;;;;;;12.90;99.90;;;;;;5103027;28;19943;-63
2023/06/17 09:28:46;;;;;;;;;;;12.90;99.90;;;;;;5072584;28;19960;-62
2023/06/17 09:31:13;;;;;;;;;;;12.90;99.90;;;;;;5079904;28;19998;-62
2023/06/17 09:33:43;;;;;;;;;;;12.80;99.90;;;;;;5091955;28;19916;-62
2023/06/17 09:36:10;;;;;;;;;;;12.80;99.90;;;;;;5090327;28;19915;-63
2023/06/17 09:38:38;;;;;;;;;;;12.70;99.90;;;;;;5080970;28;19913;-62
2023/06/17 09:41:05;;;;;;;;;;;12.70;99.90;;;;;;5061186;28;19908;-63
2023/06/17 09:43:31;;;;;;;;;;;12.60;99.90;;;;;;5076545;28;20508;-63
2023/06/17 09:46:02;;;;;;;;;;;12.60;99.90;;;;;;5082099;28;20328;-62
2023/06/17 09:48:32;;;;;;;;;;;12.60;99.90;;;;;;5081381;28;19909;-63
2023/06/17 09:50:59;;;;;;;;;;;12.50;99.90;;;;;;5098919;28;19916;-62
2023/06/17 09:53:28;;;;;;;;;;;12.50;99.90;;;;;;5085737;28;19915;-63
2023/06/17 09:55:57;;;;;;;;;;;12.40;99.90;;;;;;5075827;28;19959;-63
2023/06/17 09:58:26;;;;;;;;;;;12.50;99.90;;;;;;5087518;28;19981;-62
2023/06/17 10:00:52;;;;;;;;;;;12.40;99.90;;;;;;5078532;28;19968;-60
2023/06/17 10:03:20;;;;;;;;;;;12.30;99.90;;;;;;5104265;28;19969;-62
2023/06/17 10:05:52;;;;;;;;;;;12.40;99.90;;;;;;5078600;28;19934;-61
2023/06/17 10:08:19;;;;;;;;;;;12.20;99.90;;;;;;5089360;28;19909;-64
2023/06/17 10:10:47;;;;;;;;;;;12.20;99.90;;;;;;5086247;28;19978;-63
2023/06/17 10:13:15;;;;;;;;;;;12.20;99.90;;;;;;5091162;28;20361;-60
2023/06/17 10:15:41;;;;;;;;;;;12.20;99.90;;;;;;5076969;28;19918;-62
2023/06/17 10:18:08;;;;;;;;;;;12.10;99.90;;;;;;5085860;28;20574;-61
2023/06/17 10:20:36;;;;;;;;;;;12.00;99.90;;;;;;5060717;28;19919;-61
2023/06/17 10:23:03;;;;;;;;;;;12.00;99.90;;;;;;5091404;28;19959;-61
2023/06/17 10:25:29;;;;;;;;;;;12.00;99.90;;;;;;5075647;28;19931;-61
2023/06/17 10:27:56;;;;;;;;;;;12.00;99.90;;;;;;5091883;28;19913;-61
2023/06/17 10:30:24;;;;;;;;;;;11.90;99.90;;;;;;5082357;28;19938;-61
2023/06/17 10:33:03;;;;;;;;;;;11.90;99.90;;;;;;5091971;28;19919;-60
2023/06/17 10:35:37;;;;;;;;;;;11.80;99.90;;;;;;5074957;28;19917;-61
2023/06/17 10:38:04;;;;;;;;;;;11.80;99.90;;;;;;5107148;28;20281;-62
2023/06/17 10:40:35;;;;;;;;;;;11.80;99.90;;;;;;5088552;28;19912;-61
2023/06/17 10:43:02;;;;;;;;;;;11.80;99.90;;;;;;5090619;28;20395;-61
2023/06/17 10:45:32;;;;;;;;;;;11.70;99.90;;;;;;5075722;28;19916;-62
2023/06/17 10:48:17;;;;;;;;;;;11.70;99.90;;;;;;5076901;28;20058;-62
2023/06/17 10:50:47;;;;;;;;;;;11.70;99.90;;;;;;5073955;28;19932;-61
2023/06/17 10:53:17;;;;;;;;;;;11.60;99.90;;;;;;5089807;28;19920;-62
2023/06/17 10:55:45;;;;;;;;;;;11.60;99.90;;;;;;5076816;28;19908;-62
2023/06/17 10:58:12;;;;;;;;;;;11.60;99.90;;;;;;5096902;28;19999;-62
2023/06/17 11:00:39;;;;;;;;;;;11.60;99.90;;;;;;5073737;28;19913;-63
2023/06/17 11:03:06;;;;;;;;;;;11.60;99.90;;;;;;5088527;28;19912;-62
2023/06/17 11:05:36;;;;;;;;;;;11.60;99.90;;;;;;5075145;28;19916;-62
2023/06/17 11:08:03;;;;;;;;;;;11.60;99.90;;;;;;5089697;28;19921;-62
2023/06/17 11:10:30;;;;;;;;;;;11.60;99.90;;;;;;5075156;28;19909;-61
2023/06/17 11:12:56;;;;;;;;;;;11.60;99.90;;;;;;5093294;28;19912;-62
2023/06/17 11:15:23;;;;;;;;;;;11.50;99.90;;;;;;5093208;28;19935;-62
2023/06/17 11:18:03;;;;;;;;;;;11.50;99.90;;;;;;5090631;28;20002;-62
2023/06/17 11:20:36;;;;;;;;;;;11.50;99.90;;;;;;5073269;28;20324;-60
2023/06/17 11:23:03;;;;;;;;;;;11.50;99.90;;;;;;5088002;28;20387;-61
2023/06/17 11:25:30;;;;;;;;;;;11.40;99.90;;;;;;5077787;28;19977;-60
2023/06/17 11:27:56;;;;;;;;;;;11.30;99.90;;;;;;5089462;28;19920;-61
2023/06/17 11:30:25;;;;;;;;;;;11.30;99.90;;;;;;5072854;28;19962;-61
2023/06/17 11:32:52;;;;;;;;;;;11.30;99.90;;;;;;5072459;28;19952;-62
2023/06/17 11:35:18;;;;;;;;;;;11.30;99.90;;;;;;5073212;28;19962;-61
2023/06/17 11:37:47;;;;;;;;;;;11.20;99.90;;;;;;5075326;28;19912;-62
2023/06/17 11:40:13;;;;;;;;;;;11.20;99.90;;;;;;5112226;28;19908;-62
2023/06/17 11:42:40;;;;;;;;;;;11.20;99.90;;;;;;5113330;28;19923;-62
2023/06/17 11:45:07;;;;;;;;;;;11.10;99.90;;;;;;5074704;28;19916;-61
2023/06/17 11:47:35;;;;;;;;;;;11.10;99.90;;;;;;5073388;28;19951;-61
2023/06/17 11:50:05;;;;;;;;;;;11.10;99.90;;;;;;5073698;28;20155;-61
2023/06/17 11:52:33;;;;;;;;;;;11.10;99.90;;;;;;5073248;28;19919;-61
2023/06/17 11:54:59;;;;;;;;;;;11.00;99.90;;;;;;5090704;28;19920;-61
2023/06/17 11:57:27;;;;;;;;;;;11.00;99.90;;;;;;5093599;28;19919;-62
2023/06/17 12:00:04;;;;;;;;;;;11.00;99.90;;;;;;5092879;28;20368;-62
2023/06/17 12:02:36;;;;;;;;;;;11.00;99.90;;;;;;5093700;28;19908;-62
2023/06/17 12:05:03;;;;;;;;;;;11.00;99.90;;;;;;5074611;28;20254;-62
2023/06/17 12:07:36;;;;;;;;;;;11.00;99.90;;;;;;5073378;28;19909;-61
2023/06/17 12:10:03;;;;;;;;;;;11.00;99.90;;;;;;5073469;28;20323;-62
2023/06/17 12:12:33;;;;;;;;;;;11.00;99.90;;;;;;5073226;28;19961;-62
2023/06/17 12:15:04;;;;;;;;;;;11.00;99.90;;;;;;5082182;28;19993;-62
2023/06/17 12:17:36;;;;;;;;;;;11.00;99.90;;;;;;5093070;28;19916;-63
2023/06/17 12:20:03;;;;;;;;;;;11.00;99.90;;;;;;5092883;28;20246;-62
2023/06/17 12:22:29;;;;;;;;;;;11.00;99.90;;;;;;5077584;28;19999;-61
2023/06/17 12:24:56;;;;;;;;;;;11.10;99.90;;;;;;5072521;28;19997;-62
2023/06/17 12:27:29;;;;;;;;;;;11.10;99.90;;;;;;5072447;28;20388;-62
2023/06/17 12:29:57;;;;;;;;;;;11.10;99.90;;;;;;5072939;28;19909;-61
2023/06/17 12:32:24;;;;;;;;;;;11.10;99.90;;;;;;5072739;28;19909;-61
2023/06/17 12:34:51;;;;;;;;;;;11.10;99.90;;;;;;5072578;28;20415;-61
2023/06/17 12:37:21;;;;;;;;;;;11.10;99.90;;;;;;5072925;28;19983;-62
2023/06/17 12:39:48;;;;;;;;;;;11.10;99.90;;;;;;5109365;28;19908;-61
2023/06/17 12:42:15;;;;;;;;;;;11.00;99.90;;;;;;5091524;28;19920;-61
2023/06/17 12:44:42;;;;;;;;;;;11.00;99.90;;;;;;5076167;28;19920;-62
2023/06/17 12:47:09;;;;;;;;;;;11.10;99.90;;;;;;5072294;28;19916;-63
2023/06/17 12:49:35;;;;;;;;;;;11.00;99.90;;;;;;5073696;28;19912;-61
2023/06/17 12:52:02;;;;;;;;;;;11.00;99.90;;;;;;5072305;28;19923;-62
2023/06/17 12:54:29;;;;;;;;;;;11.00;99.90;;;;;;5072417;28;19973;-61
2023/06/17 12:56:56;;;;;;;;;;;11.00;99.90;;;;;;5072625;28;20004;-62
2023/06/17 12:59:22;;;;;;;;;;;11.10;99.90;;;;;;5072483;28;19909;-62
2023/06/17 13:01:49;;;;;;;;;;;11.00;99.90;;;;;;5090514;28;20003;-62
2023/06/17 13:04:15;;;;;;;;;;;11.00;99.90;;;;;;5080207;28;19924;-62
2023/06/17 13:06:44;;;;;;;;;;;11.00;99.90;;;;;;5080363;28;19916;-61
2023/06/17 13:09:12;;;;;;;;;;;11.00;99.90;;;;;;5091960;28;20672;-61
2023/06/17 13:11:42;;;;;;;;;;;10.90;99.90;;;;;;5092268;28;19909;-62
2023/06/17 13:14:09;;;;;;;;;;;10.90;99.90;;;;;;5080729;28;19908;-62
2023/06/17 13:16:36;;;;;;;;;;;10.80;99.90;;;;;;5072137;28;19908;-62
2023/06/17 13:19:03;;;;;;;;;;;10.80;99.90;;;;;;5091374;28;19966;-62
2023/06/17 13:21:33;;;;;;;;;;;10.70;99.90;;;;;;5092677;28;19909;-61
2023/06/17 13:24:00;;;;;;;;;;;10.70;99.90;;;;;;5082276;28;19923;-61
2023/06/17 13:26:29;;;;;;;;;;;10.70;99.90;;;;;;5072203;28;19909;-61
2023/06/17 13:29:01;;;;;;;;;;;10.70;99.90;;;;;;5072183;28;19915;-61
2023/06/17 13:31:28;;;;;;;;;;;10.70;99.90;;;;;;5072285;28;19919;-62
2023/06/17 13:33:56;;;;;;;;;;;10.70;99.90;;;;;;5083647;28;19999;-61
2023/06/17 13:36:23;;;;;;;;;;;10.60;99.90;;;;;;5076288;28;19916;-61
2023/06/17 13:38:49;;;;;;;;;;;10.60;99.90;;;;;;5096652;28;19955;-62
2023/06/17 13:41:16;;;;;;;;;;;10.50;99.90;;;;;;5116810;28;19917;-61
2023/06/17 13:43:43;;;;;;;;;;;10.50;99.90;;;;;;5101210;28;19920;-61
2023/06/17 13:46:10;;;;;;;;;;;10.50;99.90;;;;;;5088426;28;19912;-62
2023/06/17 13:48:36;;;;;;;;;;;10.50;99.90;;;;;;5096135;28;20053;-61
2023/06/17 13:51:03;;;;;;;;;;;10.40;99.90;;;;;;5096237;28;19915;-61
2023/06/17 13:53:33;;;;;;;;;;;10.40;99.90;;;;;;5089892;28;19909;-60
2023/06/17 13:56:00;;;;;;;;;;;10.40;99.90;;;;;;5075864;28;19917;-61
2023/06/17 13:58:26;;;;;;;;;;;10.30;99.90;;;;;;5078244;28;19916;-61
2023/06/17 14:00:53;;;;;;;;;;;10.30;99.90;;;;;;5095883;28;19912;-62
2023/06/17 14:03:20;;;;;;;;;;;10.30;99.90;;;;;;5091382;28;20339;-61
2023/06/17 14:05:46;;;;;;;;;;;10.20;99.90;;;;;;5075660;28;20481;-62
2023/06/17 14:08:13;;;;;;;;;;;10.20;99.90;;;;;;5075106;28;20379;-61
2023/06/17 14:10:40;;;;;;;;;;;10.10;99.90;;;;;;5075395;28;19978;-61
2023/06/17 14:13:07;;;;;;;;;;;10.10;99.90;;;;;;5080661;28;19912;-61
2023/06/17 14:15:33;;;;;;;;;;;10.00;99.90;;;;;;5095906;28;19961;-60
2023/06/17 14:18:00;;;;;;;;;;;10.00;99.90;;;;;;5095720;28;20430;-62